Amarillo (AMA/KAMA)

Map

Destinations

Information

Location
Amarillo, TX
Local Time
18:27 / 6:27 pm
GMT Time
22:27 / 10:27 pm
Gates
Unassigned
No FAA reported delays
METAR KAMA 272153Z 16010G17KT 10SM CLR 21/02 A2988 RMK AO2 SLP094 T02110022
TAF KAMA 271734Z 2718/2818 VRB06KT P6SM SKC FM272200 15013KT P6SM SKC FM281000 13015KT P6SM BKN010 FM281400 12014KT P6SM -RA BKN040
  • No charts available